createdAt,value
2022-10-09T00:00:40.859Z,10.80
2022-10-09T00:03:11.769Z,8.70
2022-10-09T00:05:42.931Z,10.40
2022-10-09T00:08:13.964Z,13.80
2022-10-09T00:10:46.335Z,6.80
2022-10-09T00:13:17.493Z,9.70
2022-10-09T00:15:48.927Z,5.20
2022-10-09T00:18:22.256Z,7.10
2022-10-09T00:20:53.149Z,13.40
2022-10-09T00:23:24.512Z,8.60
2022-10-09T00:25:57.320Z,11.20
2022-10-09T00:28:33.389Z,10.50
2022-10-09T00:31:10.407Z,11.20
2022-10-09T00:33:42.116Z,9.40
2022-10-09T00:36:15.191Z,16.10
2022-10-09T00:38:46.262Z,12.60
2022-10-09T00:41:19.850Z,9.20
2022-10-09T00:43:52.797Z,11.10
2022-10-09T00:46:37.788Z,8.90
2022-10-09T00:49:21.427Z,8.00
2022-10-09T00:51:53.275Z,15.90
2022-10-09T00:54:27.951Z,8.80
2022-10-09T00:56:59.397Z,7.60
2022-10-09T00:59:31.268Z,12.80
2022-10-09T01:02:02.139Z,6.70
2022-10-09T01:04:33.077Z,8.70
2022-10-09T01:07:15.929Z,7.70
2022-10-09T01:09:53.117Z,8.30
2022-10-09T01:12:34.333Z,7.40
2022-10-09T01:15:14.468Z,11.60
2022-10-09T01:17:52.697Z,9.30
2022-10-09T01:20:46.193Z,6.70
2022-10-09T01:23:42.053Z,15.90
2022-10-09T01:26:33.577Z,12.40
2022-10-09T01:29:07.891Z,10.90
2022-10-09T01:31:43.065Z,6.80
2022-10-09T01:36:45.534Z,7.70
2022-10-09T01:39:21.165Z,10.40
2022-10-09T01:41:55.217Z,11.50
2022-10-09T01:44:27.967Z,13.50
2022-10-09T01:46:59.662Z,9.30
2022-10-09T01:49:41.276Z,8.50
2022-10-09T01:52:22.888Z,15.00
2022-10-09T01:55:08.113Z,7.90
2022-10-09T01:57:46.807Z,11.80
2022-10-09T02:00:18.212Z,10.10
2022-10-09T02:02:51.266Z,8.00
2022-10-09T02:05:26.660Z,9.50
2022-10-09T02:07:59.955Z,11.00
2022-10-09T02:10:32.756Z,10.60
2022-10-09T02:13:04.339Z,7.90
2022-10-09T02:15:40.485Z,13.10
2022-10-09T02:18:16.258Z,8.80
2022-10-09T02:20:53.402Z,9.30
2022-10-09T02:23:25.576Z,8.00
2022-10-09T02:25:57.076Z,9.50
2022-10-09T02:28:28.163Z,11.40
2022-10-09T02:31:07.304Z,6.20
2022-10-09T02:33:38.276Z,6.80
2022-10-09T02:36:09.258Z,13.10
2022-10-09T02:38:40.140Z,8.40
2022-10-09T02:41:10.986Z,7.50
2022-10-09T02:43:41.840Z,7.00
2022-10-09T02:46:12.743Z,9.10
2022-10-09T02:48:43.608Z,8.80
2022-10-09T02:51:14.668Z,10.10
2022-10-09T02:53:45.922Z,10.70
2022-10-09T02:56:16.832Z,8.40
2022-10-09T02:58:47.741Z,9.70
2022-10-09T03:01:19.218Z,9.50
2022-10-09T03:03:50.128Z,9.70
2022-10-09T03:06:22.764Z,9.40
2022-10-09T03:08:54.784Z,12.10
2022-10-09T03:11:26.935Z,8.10
2022-10-09T03:13:58.063Z,10.50
2022-10-09T03:16:29.604Z,10.80
2022-10-09T03:19:00.563Z,11.50
2022-10-09T03:21:31.627Z,8.20
2022-10-09T03:24:02.869Z,12.00
2022-10-09T03:26:33.767Z,13.80
2022-10-09T03:29:04.582Z,13.70
2022-10-09T03:31:52.861Z,12.10
2022-10-09T03:34:24.421Z,13.50
2022-10-09T03:36:55.247Z,12.00
2022-10-09T03:39:26.152Z,11.80
2022-10-09T03:41:57.520Z,14.30
2022-10-09T03:44:28.388Z,9.70
2022-10-09T03:46:59.271Z,10.50
2022-10-09T03:49:30.206Z,11.50
2022-10-09T03:52:01.076Z,12.30
2022-10-09T03:54:31.951Z,10.10
2022-10-09T03:57:02.817Z,6.80
2022-10-09T03:59:33.647Z,13.30
2022-10-09T04:02:04.461Z,15.60
2022-10-09T04:04:35.268Z,14.80
2022-10-09T04:07:06.068Z,10.00
2022-10-09T04:09:36.878Z,8.60
2022-10-09T04:12:08.055Z,10.00
2022-10-09T04:14:38.924Z,9.20
2022-10-09T04:17:10.317Z,13.10
2022-10-09T04:19:41.276Z,10.80
2022-10-09T04:22:12.094Z,12.80
2022-10-09T04:24:42.983Z,8.30
2022-10-09T04:27:13.971Z,8.40
2022-10-09T04:29:45.104Z,8.00
2022-10-09T04:32:15.965Z,7.10
2022-10-09T04:34:46.807Z,9.50
2022-10-09T04:37:17.688Z,12.00
2022-10-09T04:39:48.699Z,11.20
2022-10-09T04:42:19.478Z,9.10
2022-10-09T04:44:50.321Z,11.30
2022-10-09T04:47:21.141Z,11.00
2022-10-09T04:49:52.065Z,11.60
2022-10-09T04:52:22.857Z,11.90
2022-10-09T04:54:54.064Z,14.10
2022-10-09T04:57:24.897Z,13.30
2022-10-09T04:59:55.690Z,12.30
2022-10-09T05:02:26.658Z,12.00
2022-10-09T05:04:57.524Z,10.90
2022-10-09T05:07:28.309Z,18.40
2022-10-09T05:09:59.122Z,12.60
2022-10-09T05:12:30.868Z,13.40
2022-10-09T05:15:01.722Z,9.80
2022-10-09T05:17:32.632Z,11.20
2022-10-09T05:20:03.869Z,15.70
2022-10-09T05:22:34.799Z,11.00
2022-10-09T05:25:07.048Z,15.60
2022-10-09T05:27:37.975Z,9.20
2022-10-09T05:30:11.449Z,14.30
2022-10-09T05:32:42.256Z,14.10
2022-10-09T05:35:13.607Z,13.40
2022-10-09T05:37:47.102Z,10.50
2022-10-09T05:40:18.159Z,18.60
2022-10-09T05:42:52.080Z,14.60
2022-10-09T05:45:23.560Z,15.00
2022-10-09T05:47:54.341Z,13.40
2022-10-09T05:50:25.175Z,14.50
2022-10-09T05:52:57.083Z,11.50
2022-10-09T05:55:28.225Z,12.40
2022-10-09T05:57:59.081Z,14.70
2022-10-09T06:00:30.055Z,15.80
2022-10-09T06:03:01.009Z,10.90
2022-10-09T06:05:31.816Z,10.40
2022-10-09T06:08:02.734Z,9.80
2022-10-09T06:10:33.658Z,11.30
2022-10-09T06:13:04.493Z,11.50
2022-10-09T06:15:35.345Z,15.30
2022-10-09T06:18:06.789Z,11.30
2022-10-09T06:20:37.662Z,14.50
2022-10-09T06:23:08.407Z,17.40
2022-10-09T06:25:39.292Z,13.50
2022-10-09T06:28:10.174Z,15.00
2022-10-09T06:30:41.097Z,13.50
2022-10-09T06:33:11.972Z,11.50
2022-10-09T06:35:42.745Z,10.70
2022-10-09T06:38:15.513Z,10.50
2022-10-09T06:40:46.399Z,10.60
2022-10-09T06:43:17.394Z,13.60
2022-10-09T06:45:48.262Z,9.70
2022-10-09T06:48:19.182Z,14.50
2022-10-09T06:50:50.071Z,11.40
2022-10-09T06:53:20.960Z,9.20
2022-10-09T06:55:59.391Z,12.70
2022-10-09T06:58:30.624Z,11.70
2022-10-09T07:01:10.077Z,8.40
2022-10-09T07:03:43.116Z,6.10
2022-10-09T07:06:16.239Z,10.80
2022-10-09T07:08:49.552Z,5.50
2022-10-09T07:11:27.663Z,6.00
2022-10-09T07:14:00.508Z,4.20
2022-10-09T07:16:34.595Z,7.90
2022-10-09T07:19:11.336Z,5.60
2022-10-09T07:21:45.733Z,8.50
2022-10-09T07:24:17.418Z,5.90
2022-10-09T07:26:49.602Z,7.70
2022-10-09T07:29:22.082Z,14.30
2022-10-09T07:31:52.894Z,4.00
2022-10-09T07:34:23.864Z,4.60
2022-10-09T07:36:54.702Z,6.30
2022-10-09T07:39:25.537Z,6.10
2022-10-09T07:41:56.476Z,5.20
2022-10-09T07:44:27.413Z,6.40
2022-10-09T07:46:58.360Z,4.60
2022-10-09T07:49:29.145Z,7.30
2022-10-09T07:52:00.018Z,7.40
2022-10-09T07:54:30.971Z,5.60
2022-10-09T07:57:02.281Z,6.40
2022-10-09T07:59:33.080Z,4.60
2022-10-09T08:02:03.898Z,5.00
2022-10-09T08:04:34.791Z,7.00
2022-10-09T08:07:08.535Z,11.70
2022-10-09T08:09:39.789Z,11.80
2022-10-09T08:12:11.773Z,6.70
2022-10-09T08:14:42.757Z,8.50
2022-10-09T08:17:13.606Z,7.60
2022-10-09T08:19:44.497Z,6.20
2022-10-09T08:22:15.454Z,5.50
2022-10-09T08:24:46.305Z,6.70
2022-10-09T08:27:17.141Z,8.30
2022-10-09T08:29:48.391Z,16.80
2022-10-09T08:32:19.286Z,5.50
2022-10-09T08:34:51.376Z,8.00
2022-10-09T08:37:22.334Z,6.60
2022-10-09T08:39:53.265Z,7.80
2022-10-09T08:42:33.030Z,6.10
2022-10-09T08:45:05.304Z,10.80
2022-10-09T08:47:46.404Z,6.40
2022-10-09T08:50:22.998Z,5.80
2022-10-09T08:52:58.864Z,6.10
2022-10-09T08:55:33.984Z,9.60
2022-10-09T09:00:44.862Z,6.50
2022-10-09T09:03:35.146Z,6.60
2022-10-09T09:06:13.703Z,4.40
2022-10-09T09:08:51.552Z,7.20
2022-10-09T09:11:31.744Z,8.80
2022-10-09T09:14:20.616Z,8.70
2022-10-09T09:17:00.007Z,6.40
2022-10-09T09:19:44.552Z,8.60
2022-10-09T09:22:17.825Z,9.70
2022-10-09T09:24:52.669Z,9.70
2022-10-09T09:27:28.468Z,6.80
2022-10-09T09:30:05.619Z,7.60
2022-10-09T09:32:41.002Z,9.60
2022-10-09T09:35:22.412Z,9.70
2022-10-09T09:37:53.557Z,7.70
2022-10-09T09:40:36.551Z,5.30
2022-10-09T09:43:18.212Z,10.20
2022-10-09T09:45:49.705Z,7.80
2022-10-09T09:48:33.601Z,6.10
2022-10-09T09:51:30.030Z,5.70
2022-10-09T09:54:01.173Z,7.70
2022-10-09T09:57:11.149Z,11.00
2022-10-09T09:59:37.552Z,11.90
2022-10-09T10:02:15.984Z,4.70
2022-10-09T10:04:56.561Z,10.10
2022-10-09T10:07:36.321Z,10.00
2022-10-09T10:10:23.941Z,8.70
2022-10-09T10:13:01.862Z,5.80
2022-10-09T10:15:34.930Z,7.00
2022-10-09T10:18:08.253Z,5.00
2022-10-09T10:20:48.276Z,5.80
2022-10-09T10:23:41.130Z,8.10
2022-10-09T10:26:22.906Z,6.80
2022-10-09T10:28:59.087Z,9.00
2022-10-09T10:31:42.998Z,8.30
2022-10-09T10:34:20.621Z,8.20
2022-10-09T10:37:02.503Z,11.10
2022-10-09T10:39:38.854Z,10.20
2022-10-09T10:42:20.255Z,6.70
2022-10-09T10:45:01.742Z,7.00
2022-10-09T10:47:38.531Z,5.80
2022-10-09T10:50:17.155Z,7.00
2022-10-09T10:53:03.090Z,6.20
2022-10-09T10:55:48.623Z,6.20
2022-10-09T11:01:13.250Z,7.30
2022-10-09T11:04:04.125Z,8.20
2022-10-09T11:06:41.308Z,7.50
2022-10-09T11:09:24.936Z,6.40
2022-10-09T11:12:05.819Z,6.80
2022-10-09T11:14:48.540Z,5.30
2022-10-09T11:17:29.809Z,8.00
2022-10-09T11:20:16.768Z,6.00
2022-10-09T11:23:05.379Z,8.00
2022-10-09T11:25:43.624Z,7.40
2022-10-09T11:28:19.516Z,6.90
2022-10-09T11:30:58.230Z,6.70
2022-10-09T11:33:37.517Z,7.60
2022-10-09T11:36:15.942Z,5.30
2022-10-09T11:38:52.595Z,8.20
2022-10-09T11:41:26.523Z,11.60
2022-10-09T11:44:21.730Z,8.40
2022-10-09T11:47:02.149Z,7.60
2022-10-09T11:49:46.468Z,9.20
2022-10-09T11:52:27.841Z,10.00
2022-10-09T11:55:08.429Z,8.70
2022-10-09T11:57:39.322Z,8.00
2022-10-09T12:00:13.119Z,10.10
2022-10-09T12:02:45.588Z,7.10
2022-10-09T12:05:32.961Z,7.30
2022-10-09T12:08:19.253Z,7.60
2022-10-09T12:10:58.460Z,5.90
2022-10-09T12:13:45.229Z,6.40
2022-10-09T12:16:38.544Z,8.70
2022-10-09T12:19:18.331Z,5.60
2022-10-09T12:21:54.010Z,7.60
2022-10-09T12:24:29.271Z,5.80
2022-10-09T12:27:04.970Z,7.60
2022-10-09T12:29:41.644Z,9.00
2022-10-09T12:32:23.669Z,6.30
2022-10-09T12:34:56.810Z,6.10
2022-10-09T12:37:36.759Z,10.60
2022-10-09T12:40:17.285Z,8.80
2022-10-09T12:42:51.707Z,7.60
2022-10-09T12:45:26.052Z,4.30
2022-10-09T12:47:58.660Z,8.00
2022-10-09T12:50:32.477Z,11.20
2022-10-09T12:53:06.569Z,12.10
2022-10-09T12:55:44.463Z,10.50
2022-10-09T12:58:20.208Z,7.90
2022-10-09T13:00:54.712Z,7.10
2022-10-09T13:03:37.722Z,4.30
2022-10-09T13:06:36.061Z,4.50
2022-10-09T13:09:10.001Z,4.40
2022-10-09T13:11:44.968Z,8.10
2022-10-09T13:14:34.768Z,7.80
2022-10-09T13:17:06.262Z,7.60
2022-10-09T13:19:39.896Z,5.00
2022-10-09T13:22:22.235Z,12.00
2022-10-09T13:24:56.348Z,6.90
2022-10-09T13:27:31.231Z,5.40
2022-10-09T13:30:02.618Z,4.60
2022-10-09T13:32:33.535Z,9.30
2022-10-09T13:35:07.060Z,4.90
2022-10-09T13:37:39.737Z,7.20
2022-10-09T13:40:15.762Z,6.50
2022-10-09T13:42:52.290Z,9.00
2022-10-09T13:45:24.806Z,9.20
2022-10-09T13:47:57.708Z,5.80
2022-10-09T13:50:28.687Z,7.90
2022-10-09T13:53:02.265Z,6.20
2022-10-09T13:55:36.118Z,7.40
2022-10-09T13:58:07.909Z,5.20
2022-10-09T14:00:39.364Z,11.70
2022-10-09T14:03:10.551Z,8.60
2022-10-09T14:05:42.065Z,8.40
2022-10-09T14:08:13.462Z,8.80
2022-10-09T14:10:45.294Z,7.60
2022-10-09T14:13:16.725Z,14.10
2022-10-09T14:15:47.647Z,7.10
2022-10-09T14:18:19.015Z,5.80
2022-10-09T14:20:50.576Z,7.90
2022-10-09T14:23:22.088Z,5.50
2022-10-09T14:25:53.701Z,8.10
2022-10-09T14:28:24.929Z,11.40
2022-10-09T14:30:56.250Z,11.50
2022-10-09T14:33:27.203Z,10.00
2022-10-09T14:35:58.465Z,8.40
2022-10-09T14:38:29.383Z,6.50
2022-10-09T14:41:00.596Z,16.60
2022-10-09T14:43:31.647Z,6.50
2022-10-09T14:46:12.241Z,6.10
2022-10-09T14:48:43.087Z,6.90
2022-10-09T14:51:16.568Z,9.10
2022-10-09T14:53:48.168Z,11.00
2022-10-09T14:56:21.592Z,12.90
2022-10-09T14:58:52.663Z,8.00
2022-10-09T15:01:24.823Z,8.50
2022-10-09T15:03:56.161Z,7.50
2022-10-09T15:06:28.212Z,8.40
2022-10-09T15:09:04.644Z,7.80
2022-10-09T15:11:38.312Z,10.30
2022-10-09T15:14:09.616Z,11.20
2022-10-09T15:16:40.684Z,7.60
2022-10-09T15:19:11.590Z,10.80
2022-10-09T15:21:42.510Z,8.00
2022-10-09T15:24:14.555Z,12.10
2022-10-09T15:26:45.701Z,9.80
2022-10-09T15:29:17.860Z,7.60
2022-10-09T15:31:50.986Z,8.50
2022-10-09T15:34:22.219Z,9.40
2022-10-09T15:36:53.383Z,11.20
2022-10-09T15:39:24.899Z,12.20
2022-10-09T15:41:55.941Z,9.20
2022-10-09T15:44:27.583Z,9.80
2022-10-09T15:46:58.605Z,14.70
2022-10-09T15:49:29.721Z,8.30
2022-10-09T15:52:01.065Z,10.10
2022-10-09T15:54:32.013Z,13.40
2022-10-09T15:57:03.119Z,11.30
2022-10-09T15:59:37.398Z,18.70
2022-10-09T16:02:08.470Z,10.60
2022-10-09T16:04:39.682Z,10.30
2022-10-09T16:07:10.955Z,13.90
2022-10-09T16:09:44.465Z,16.00
2022-10-09T16:12:15.616Z,14.10
2022-10-09T16:14:46.764Z,12.70
2022-10-09T16:17:18.118Z,13.10
2022-10-09T16:19:51.490Z,15.50
2022-10-09T16:22:25.120Z,13.50
2022-10-09T16:24:56.352Z,10.20
2022-10-09T16:27:34.644Z,11.20
2022-10-09T16:30:06.137Z,13.60
2022-10-09T16:32:41.214Z,23.10
2022-10-09T16:35:12.575Z,15.00
2022-10-09T16:37:44.333Z,12.00
2022-10-09T16:40:16.044Z,14.20
2022-10-09T16:42:48.177Z,10.30
2022-10-09T16:45:19.742Z,9.10
2022-10-09T16:47:52.172Z,12.70
2022-10-09T16:50:23.286Z,11.60
2022-10-09T16:52:54.287Z,11.20
2022-10-09T16:55:28.080Z,13.80
2022-10-09T16:58:00.080Z,15.00
2022-10-09T17:00:31.667Z,12.70
2022-10-09T17:03:05.610Z,13.40
2022-10-09T17:05:44.060Z,15.10
2022-10-09T17:08:16.246Z,13.40
2022-10-09T17:10:52.920Z,13.30
2022-10-09T17:13:23.874Z,17.70
2022-10-09T17:15:55.768Z,14.10
2022-10-09T17:18:27.015Z,14.00
2022-10-09T17:20:58.715Z,13.90
2022-10-09T17:23:29.700Z,16.80
2022-10-09T17:26:05.409Z,17.00
2022-10-09T17:28:36.906Z,14.60
2022-10-09T17:31:10.096Z,14.10
2022-10-09T17:33:43.091Z,17.70
2022-10-09T17:36:16.084Z,15.90
2022-10-09T17:38:50.694Z,12.50
2022-10-09T17:41:24.116Z,17.20
2022-10-09T17:43:57.726Z,17.70
2022-10-09T17:46:30.605Z,23.70
2022-10-09T17:49:04.677Z,17.90
2022-10-09T17:51:39.035Z,21.30
2022-10-09T17:54:13.238Z,24.50
2022-10-09T17:56:44.797Z,24.10
2022-10-09T17:59:16.848Z,20.70
2022-10-09T18:01:48.615Z,21.50
2022-10-09T18:04:30.350Z,19.20
2022-10-09T18:07:16.935Z,18.00
2022-10-09T18:09:52.220Z,20.00
2022-10-09T18:12:23.278Z,19.80
2022-10-09T18:14:54.141Z,18.20
2022-10-09T18:17:25.821Z,20.10
2022-10-09T18:19:56.763Z,18.00
2022-10-09T18:22:27.970Z,18.40
2022-10-09T18:24:59.010Z,20.10
2022-10-09T18:27:37.248Z,22.20
2022-10-09T18:30:21.988Z,22.30
2022-10-09T18:32:53.407Z,24.90
2022-10-09T18:35:25.724Z,21.30
2022-10-09T18:38:11.912Z,19.80
2022-10-09T18:40:45.868Z,20.80
2022-10-09T18:43:17.038Z,19.30
2022-10-09T18:45:48.841Z,22.40
2022-10-09T18:48:26.309Z,19.70
2022-10-09T18:51:21.699Z,20.70
2022-10-09T18:53:59.848Z,28.80
2022-10-09T18:56:37.993Z,18.50
2022-10-09T18:59:13.606Z,23.80
2022-10-09T19:01:45.199Z,37.40
2022-10-09T19:04:16.736Z,28.10
2022-10-09T19:06:47.850Z,34.10
2022-10-09T19:09:18.992Z,30.00
2022-10-09T19:11:52.644Z,33.70
2022-10-09T19:14:24.307Z,29.90
2022-10-09T19:16:58.458Z,28.30
2022-10-09T19:19:29.877Z,24.70
2022-10-09T19:22:04.032Z,57.70
2022-10-09T19:24:35.610Z,37.80
2022-10-09T19:27:06.630Z,28.70
2022-10-09T19:29:39.432Z,22.90
2022-10-09T19:32:10.325Z,21.50
2022-10-09T19:34:41.384Z,21.60
2022-10-09T19:37:12.740Z,22.50
2022-10-09T19:39:48.437Z,20.70
2022-10-09T19:42:20.052Z,26.80
2022-10-09T19:45:12.885Z,29.00
2022-10-09T19:47:44.048Z,23.00
2022-10-09T19:50:18.187Z,22.90
2022-10-09T19:52:51.967Z,25.30
2022-10-09T19:55:30.189Z,31.10
2022-10-09T19:58:11.691Z,31.50
2022-10-09T20:00:47.113Z,37.80
2022-10-09T20:03:18.428Z,28.90
2022-10-09T20:05:49.917Z,30.30
2022-10-09T20:08:20.855Z,27.50
2022-10-09T20:10:51.671Z,32.70
2022-10-09T20:13:22.533Z,17.90
2022-10-09T20:15:53.345Z,33.00
2022-10-09T20:18:24.232Z,26.00
2022-10-09T20:20:55.165Z,27.50
2022-10-09T20:23:26.251Z,27.90
2022-10-09T20:26:03.882Z,41.00
2022-10-09T20:28:36.203Z,36.00
2022-10-09T20:31:36.888Z,32.90
2022-10-09T20:34:08.259Z,30.70
2022-10-09T20:36:40.504Z,32.70
2022-10-09T20:39:14.485Z,32.10
2022-10-09T20:41:45.657Z,30.40
2022-10-09T20:44:16.969Z,32.00
2022-10-09T20:46:47.925Z,32.70
2022-10-09T20:49:19.010Z,34.60
2022-10-09T20:51:51.235Z,34.30
2022-10-09T20:54:24.148Z,36.80
2022-10-09T20:56:54.997Z,37.60
2022-10-09T20:59:26.157Z,35.50
2022-10-09T21:01:57.021Z,45.60
2022-10-09T21:04:27.948Z,44.20
2022-10-09T21:06:58.876Z,39.40
2022-10-09T21:09:33.239Z,44.00
2022-10-09T21:12:04.401Z,50.80
2022-10-09T21:14:37.997Z,47.80
2022-10-09T21:17:08.783Z,45.20
2022-10-09T21:19:39.646Z,50.40
2022-10-09T21:22:10.424Z,45.60
2022-10-09T21:24:41.400Z,45.10
2022-10-09T21:27:12.347Z,51.90
2022-10-09T21:29:43.509Z,43.60
2022-10-09T21:32:14.410Z,47.30
2022-10-09T21:34:46.079Z,40.20
2022-10-09T21:37:21.309Z,37.60
2022-10-09T21:39:52.811Z,33.00
2022-10-09T21:42:24.146Z,35.10
2022-10-09T21:44:55.163Z,34.70
2022-10-09T21:47:27.288Z,32.70
2022-10-09T21:50:00.597Z,32.40
2022-10-09T21:52:31.667Z,37.30
2022-10-09T21:55:02.674Z,36.60
2022-10-09T21:57:37.349Z,35.40
2022-10-09T22:00:10.143Z,37.40
2022-10-09T22:02:41.108Z,33.40
2022-10-09T22:05:12.819Z,31.50
2022-10-09T22:07:43.813Z,34.60
2022-10-09T22:10:14.833Z,38.80
2022-10-09T22:12:45.708Z,32.70
2022-10-09T22:15:16.547Z,33.80
2022-10-09T22:17:47.387Z,34.70
2022-10-09T22:20:18.929Z,34.30
2022-10-09T22:22:49.933Z,38.00
2022-10-09T22:25:21.355Z,34.70
2022-10-09T22:27:52.473Z,34.20
2022-10-09T22:30:23.592Z,30.90
2022-10-09T22:32:56.668Z,35.00
2022-10-09T22:35:29.252Z,35.90
2022-10-09T22:38:00.669Z,32.20
2022-10-09T22:40:31.494Z,32.40
2022-10-09T22:43:02.486Z,31.60
2022-10-09T22:45:37.460Z,32.30
2022-10-09T22:48:08.676Z,34.60
2022-10-09T22:50:41.457Z,28.70
2022-10-09T22:53:14.650Z,29.60
2022-10-09T22:55:45.492Z,30.80
2022-10-09T22:58:16.259Z,31.90
2022-10-09T23:00:47.066Z,32.40
2022-10-09T23:03:17.911Z,35.50
2022-10-09T23:05:48.760Z,40.60
2022-10-09T23:08:20.005Z,30.70
2022-10-09T23:10:52.809Z,35.60
2022-10-09T23:13:23.572Z,29.00
2022-10-09T23:15:54.511Z,37.40
2022-10-09T23:18:25.794Z,37.90
2022-10-09T23:20:56.688Z,36.90
2022-10-09T23:23:29.734Z,35.30
2022-10-09T23:26:00.615Z,42.60
2022-10-09T23:28:31.460Z,35.80
2022-10-09T23:31:05.393Z,30.60
2022-10-09T23:33:37.270Z,29.20
2022-10-09T23:36:10.177Z,35.10
2022-10-09T23:38:41.811Z,33.10
2022-10-09T23:41:15.431Z,32.30
2022-10-09T23:43:48.231Z,33.00
2022-10-09T23:46:22.212Z,32.50
2022-10-09T23:48:53.671Z,32.80
2022-10-09T23:51:26.009Z,34.70
2022-10-09T23:53:57.447Z,36.90
2022-10-09T23:56:30.722Z,35.40
2022-10-09T23:59:03.017Z,26.60
